Time;durP1;ratioP1;P1;durP2;ratioP2;P2;SDS_P1;SDS_P2;PMS_P1;PMS_P2;Temp;Humidity;BMP_temperature;BMP_pressure;BME280_temperature;BME280_humidity;BME280_pressure;Samples;Min_cycle;Max_cycle;Signal;HPM_P1;HPM_P2
2024/03/21 00:03:23;;;;;;;36.7;19.6;;;;;;;3.16;80.41;99105;;;;
2024/03/21 00:13:23;;;;;;;36.7;19.6;;;;;;;2.97;80;99095;;;;
2024/03/21 00:24:22;;;;;;;36.7;19.6;;;;;;;2.71;79.38;99088.333333333;;;;
2024/03/21 00:34:23;;;;;;;35.9;19.4;;;;;;;2.5;80.78;99078.333333333;;;;
2024/03/21 00:45:23;;;;;;;35.9;19.4;;;;;;;2.29;81.27;99076.666666667;;;;
2024/03/21 00:56:23;;;;;;;35.9;19.4;;;;;;;2.13;80.91;99070;;;;
2024/03/21 01:07:23;;;;;;;33.8;20.7;;;;;;;1.92;81.35;99056.666666667;;;;
2024/03/21 01:18:34;;;;;;;33.8;20.7;;;;;;;1.78;81.71;99045;;;;
2024/03/21 01:28:23;;;;;;;33.8;20.7;;;;;;;1.62;82.02;99045;;;;
2024/03/21 01:39:23;;;;;;;35.2;22.1;;;;;;;1.49;82.83;99033.333333333;;;;
2024/03/21 01:49:23;;;;;;;35.2;22.1;;;;;;;1.37;82.79;99035;;;;
2024/03/21 02:00:23;;;;;;;35.2;22.1;;;;;;;1.26;82.84;99038.333333333;;;;
2024/03/21 02:10:23;;;;;;;34.7;20.7;;;;;;;1.23;83.92;99043.333333333;;;;
2024/03/21 02:31:23;;;;;;;34.7;20.7;;;;;;;1.08;84.54;99035;;;;
2024/03/21 02:42:24;;;;;;;36.4;19.2;;;;;;;0.99;85.37;99045;;;;
2024/03/21 02:53:23;;;;;;;36.4;19.2;;;;;;;0.9;85.07;99040;;;;
2024/03/21 03:03:23;;;;;;;35.8;20.9;;;;;;;0.85;85.33;99038.333333333;;;;
2024/03/21 03:13:23;;;;;;;35.8;20.9;;;;;;;0.92;85.98;99041.666666667;;;;
2024/03/21 03:24:23;;;;;;;35.8;20.9;;;;;;;1.1;86.54;99045;;;;
2024/03/21 03:35:34;;;;;;;34.4;20.6;;;;;;;1.27;86.55;99045;;;;
2024/03/21 03:45:23;;;;;;;34.4;20.6;;;;;;;1.4;86.88;99050;;;;
2024/03/21 03:56:23;;;;;;;34.4;20.6;;;;;;;1.43;86.87;99048.333333333;;;;
2024/03/21 04:07:23;;;;;;;40.2;23.6;;;;;;;1.58;86.53;99043.333333333;;;;
2024/03/21 04:18:23;;;;;;;40.2;23.6;;;;;;;1.66;86.06;99053.333333333;;;;
2024/03/21 04:29:23;;;;;;;40.2;23.6;;;;;;;1.68;85.35;99061.666666667;;;;
2024/03/21 04:39:23;;;;;;;39;22.8;;;;;;;1.53;84.65;99063.333333333;;;;
2024/03/21 04:50:23;;;;;;;39;22.8;;;;;;;1.38;84.14;99071.666666667;;;;
2024/03/21 05:01:23;;;;;;;38.1;21.3;;;;;;;1.23;84.92;99080;;;;
2024/03/21 05:11:23;;;;;;;38.1;21.3;;;;;;;1.27;84.95;99083.333333333;;;;
2024/03/21 05:22:23;;;;;;;38.1;21.3;;;;;;;1.37;85.42;99095;;;;
2024/03/21 05:32:23;;;;;;;43.7;23.3;;;;;;;1.59;85.62;99091.666666667;;;;
2024/03/21 05:42:23;;;;;;;43.7;23.3;;;;;;;1.98;85.59;99098.333333333;;;;
2024/03/21 05:53:23;;;;;;;43.7;23.3;;;;;;;2.39;85.06;99095;;;;
2024/03/21 06:03:23;;;;;;;44;24.9;;;;;;;2.69;85.5;99101.666666667;;;;
2024/03/21 06:13:23;;;;;;;44;24.9;;;;;;;3.23;85.03;99096.666666667;;;;
2024/03/21 06:24:23;;;;;;;44;24.9;;;;;;;3.7;83.77;99098.333333333;;;;
2024/03/21 06:35:23;;;;;;;40.1;24.1;;;;;;;4.29;83.5;99106.666666667;;;;
2024/03/21 06:45:23;;;;;;;40.1;24.1;;;;;;;4.72;82.73;99101.666666667;;;;
2024/03/21 06:56:23;;;;;;;40.1;24.1;;;;;;;5.67;82.28;99100;;;;
2024/03/21 07:06:23;;;;;;;49.5;29.7;;;;;;;6.24;79.55;99100;;;;
2024/03/21 07:16:23;;;;;;;49.5;29.7;;;;;;;6.88;77.14;99100;;;;
2024/03/21 07:27:23;;;;;;;49.5;29.7;;;;;;;7.58;74.19;99046.666666667;;;;
2024/03/21 07:37:23;;;;;;;47.5;31.5;;;;;;;7.88;72.27;99043.333333333;;;;
2024/03/21 07:47:23;;;;;;;47.5;31.5;;;;;;;8.15;72.25;99092.5;;;;
2024/03/21 07:58:23;;;;;;;47.5;31.5;;;;;;;8.69;68.68;99097.5;;;;
2024/03/21 08:08:23;;;;;;;47.7;30.4;;;;;;;9.01;64.7;99092.5;;;;
2024/03/21 08:19:23;;;;;;;47.7;30.4;;;;;;;9.81;64.79;99097.5;;;;
2024/03/21 08:29:23;;;;;;;47.7;30.4;;;;;;;10.14;60.56;99092.5;;;;
2024/03/21 08:39:23;;;;;;;32.8;24.5;;;;;;;10.57;60.05;99092.5;;;;
2024/03/21 08:49:23;;;;;;;;;;;;;;;;;99135;;;;
2024/03/21 09:00:23;;;;;;;;;;;;;;;;;99130;;;;
2024/03/21 09:10:23;;;;;;;;;;;;;;;;;99110;;;;
2024/03/21 09:20:24;;;;;;;;;;;;;;;;;99125;;;;
2024/03/21 09:30:24;;;;;;;;;;;;;;;;;99115;;;;
2024/03/21 09:41:24;;;;;;;;;;;;;;;;;99110;;;;
2024/03/21 09:51:23;;;;;;;;;;;;;;;;;99100;;;;
2024/03/21 10:01:23;;;;;;;;;;;;;;;;;99100;;;;
2024/03/21 10:12:23;;;;;;;;;;;;;;;;;99075;;;;
2024/03/21 10:23:23;;;;;;;;;;;;;;;;;99075;;;;
2024/03/21 10:33:23;;;;;;;;;;;;;;;;;99070;;;;
2024/03/21 10:44:23;;;;;;;;;;;;;;;;;99070;;;;
2024/03/21 10:54:23;;;;;;;;;;;;;;;;;99055;;;;
2024/03/21 11:05:23;;;;;;;;;;;;;;;;;99047.5;;;;
2024/03/21 11:16:23;;;;;;;;;;;;;;;;;99035;;;;
2024/03/21 11:26:23;;;;;;;;;;;;;;;;;99025;;;;
2024/03/21 11:36:23;;;;;;;;;;;;;;;;;99025;;;;
2024/03/21 11:46:23;;;;;;;;;;;;;;;;;99006;;;;
2024/03/21 11:57:24;;;;;;;;;;;;;;;;;98996;;;;
2024/03/21 12:08:23;;;;;;;;;;;;;;;;;98990;;;;
2024/03/21 12:18:27;;;;;;;;;;;;;;;;;98982;;;;
2024/03/21 12:28:27;;;;;;;;;;;;;;;;;98974;;;;
2024/03/21 12:38:24;;;;;;;;;;;;;;;15.75;31.35;98968;;;;
2024/03/21 12:48:23;;;;;;;20.1;14.6;;;;;;;15.68;30.77;98954;;;;
2024/03/21 12:59:23;;;;;;;20.1;14.6;;;;;;;15.41;27.73;98940;;;;
2024/03/21 13:10:23;;;;;;;20.1;14.6;;;;;;;15.22;30.68;98905;;;;
2024/03/21 13:20:23;;;;;;;17.4;12.8;;;;;;;15.51;29.13;98901.666666667;;;;
2024/03/21 13:31:23;;;;;;;17.4;12.8;;;;;;;16.05;30.37;98895;;;;
2024/03/21 13:42:23;;;;;;;21.2;14.4;;;;;;;16.21;32.98;98888.333333333;;;;
2024/03/21 13:53:23;;;;;;;21.2;14.4;;;;;;;16.29;32.5;98886.666666667;;;;
2024/03/21 14:03:23;;;;;;;21.2;14.4;;;;;;;16.36;36.06;98875;;;;
2024/03/21 14:14:24;;;;;;;24.3;19.7;;;;;;;16.11;33.5;98856.666666667;;;;
2024/03/21 14:24:23;;;;;;;24.3;19.7;;;;;;;16.5;35.19;98861.666666667;;;;
2024/03/21 14:35:25;;;;;;;24.3;19.7;;;;;;;16.5;31.57;98853.333333333;;;;
2024/03/21 14:45:23;;;;;;;23.1;14.9;;;;;;;16.15;34.01;98846.666666667;;;;
2024/03/21 14:56:23;;;;;;;23.1;14.9;;;;;;;16.1;34.51;98835;;;;
2024/03/21 15:06:23;;;;;;;23.1;14.9;;;;;;;16.02;32.71;98836.666666667;;;;
2024/03/21 15:17:23;;;;;;;19.7;14.9;;;;;;;15.99;32.4;98836.666666667;;;;
2024/03/21 15:28:23;;;;;;;19.7;14.9;;;;;;;16.16;34.31;98835;;;;
2024/03/21 15:39:23;;;;;;;19.7;14.9;;;;;;;17.84;36.09;98831.666666667;;;;
2024/03/21 15:50:23;;;;;;;22.8;18;;;;;;;18.68;32.8;98835;;;;
2024/03/21 16:00:23;;;;;;;22.8;18;;;;;;;16.84;36.41;98836.666666667;;;;
2024/03/21 16:11:23;;;;;;;30.4;23.6;;;;;;;16.03;38.14;98838.333333333;;;;
2024/03/21 16:22:23;;;;;;;30.4;23.6;;;;;;;14.86;40.63;98846.666666667;;;;
2024/03/21 16:32:23;;;;;;;30.4;23.6;;;;;;;14.4;40.78;98850;;;;
2024/03/21 16:43:23;;;;;;;27.6;24.7;;;;;;;13.57;42.33;98858.333333333;;;;
2024/03/21 16:54:23;;;;;;;27.6;24.7;;;;;;;12.8;44.21;98856.666666667;;;;
2024/03/21 17:04:23;;;;;;;27.6;24.7;;;;;;;12.07;46.45;98851.666666667;;;;
2024/03/21 17:15:23;;;;;;;28.2;22.1;;;;;;;11.29;48.43;98848.333333333;;;;
2024/03/21 17:25:23;;;;;;;28.2;22.1;;;;;;;10.58;49.99;98856.666666667;;;;
2024/03/21 17:35:25;;;;;;;28.2;22.1;;;;;;;9.96;51.34;98860;;;;
2024/03/21 17:46:23;;;;;;;36.6;22;;;;;;;9.41;53.48;98860;;;;
2024/03/21 17:57:23;;;;;;;36.6;22;;;;;;;8.92;54.83;98878.333333333;;;;
2024/03/21 18:07:23;;;;;;;36.6;22;;;;;;;8.55;56.35;98888.333333333;;;;
2024/03/21 18:18:27;;;;;;;82;43.3;;;;;;;8.33;57.93;98890;;;;
2024/03/21 18:29:23;;;;;;;82;43.3;;;;;;;8.16;58.25;98888.333333333;;;;
2024/03/21 18:39:23;;;;;;;82;43.3;;;;;;;7.97;59.32;98888.333333333;;;;
2024/03/21 18:50:27;;;;;;;45.3;24.1;;;;;;;7.85;60.58;98888.333333333;;;;
2024/03/21 19:01:23;;;;;;;45.3;24.1;;;;;;;7.7;61.33;98886.666666667;;;;
2024/03/21 19:12:23;;;;;;;49.9;25.1;;;;;;;7.62;62.14;98890;;;;
2024/03/21 19:23:23;;;;;;;49.9;25.1;;;;;;;7.56;62.32;98896.666666667;;;;
2024/03/21 19:34:23;;;;;;;49.9;25.1;;;;;;;7.58;62.43;98903.333333333;;;;
2024/03/21 19:44:23;;;;;;;47.8;26.1;;;;;;;7.65;63.23;98910;;;;
2024/03/21 19:54:23;;;;;;;47.8;26.1;;;;;;;7.81;66.42;98920;;;;
2024/03/21 20:04:23;;;;;;;47.8;26.1;;;;;;;7.85;65.85;98925;;;;
2024/03/21 20:14:23;;;;;;;41.3;26.3;;;;;;;7.92;67.19;98930;;;;
2024/03/21 20:24:23;;;;;;;41.3;26.3;;;;;;;8.04;68.28;98918.333333333;;;;
2024/03/21 20:35:23;;;;;;;41.3;26.3;;;;;;;8.18;69.51;98916.666666667;;;;
2024/03/21 20:46:23;;;;;;;46.5;27.4;;;;;;;8.37;66.5;98916.666666667;;;;
2024/03/21 20:57:23;;;;;;;46.5;27.4;;;;;;;8.52;65.31;98923.333333333;;;;
2024/03/21 21:07:23;;;;;;;46.5;27.4;;;;;;;8.59;66.67;98930;;;;
2024/03/21 21:17:23;;;;;;;44.7;27.2;;;;;;;8.55;69.32;98945;;;;
2024/03/21 21:28:24;;;;;;;44.7;27.2;;;;;;;8.64;68.15;98946.666666667;;;;
2024/03/21 21:39:23;;;;;;;44.7;27.2;;;;;;;8.75;66.47;98930;;;;
2024/03/21 21:50:24;;;;;;;49.8;29.1;;;;;;;8.75;67.16;98925;;;;
2024/03/21 22:01:24;;;;;;;49.8;29.1;;;;;;;8.75;67.23;98915;;;;
2024/03/21 22:11:23;;;;;;;42;25.7;;;;;;;8.79;65.95;98918.333333333;;;;
2024/03/21 22:21:23;;;;;;;42;25.7;;;;;;;8.81;65.93;98905;;;;
2024/03/21 22:32:23;;;;;;;42;25.7;;;;;;;9.1;59.7;98896.666666667;;;;
2024/03/21 22:42:23;;;;;;;31.5;20;;;;;;;9.35;59.76;98896.666666667;;;;
2024/03/21 22:53:23;;;;;;;31.5;20;;;;;;;9.55;59.25;98895;;;;
2024/03/21 23:03:23;;;;;;;31.5;20;;;;;;;9.62;59.81;98901.666666667;;;;
2024/03/21 23:14:23;;;;;;;30.9;18.9;;;;;;;9.59;59.94;98913.333333333;;;;
2024/03/21 23:25:23;;;;;;;30.9;18.9;;;;;;;9.53;60.65;98915;;;;
2024/03/21 23:36:24;;;;;;;30.9;18.9;;;;;;;9.47;63.32;98916.666666667;;;;
2024/03/21 23:46:23;;;;;;;32.6;20;;;;;;;9.48;63.83;98913.333333333;;;;
2024/03/21 23:57:23;;;;;;;32.6;20;;;;;;;9.42;63.65;98903.333333333;;;;
